Elkader, IA

10:45 AM CDT on September 17, 2014 (GMT -0500)
Volga | Change Station
CLOSE
Current Station
Personal Weather Station
Location: Volga, IA
Elevation: 794 ft
Nearby Weather Stations

Elev 794 ft 42.80 °N, 91.54 °W | Updated 2 seconds ago

Partly Cloudy
Partly Cloudy
62.3 °F
Feels Like 62.3 °F
N
0.0
Wind Variable Wind from SSW
Gusts 0.0 mph

Today
High -- | Low -- °F
--% Chance of Precip.
Yesterday
High -- | Low -- °F
Precip. -- in
6:47 AM 7:11 PM
Waning Crescent, 35% visible
Pressure 30.01 in
Visibility 10.0 miles
Clouds Mostly Cloudy 9500 ft
Dew Point 56 °F
Humidity 80%
Rainfall 0.00 in
Snow Depth Not available.
UV 2 out of 12
Pollen 3.80 out of 12
Air Quality Not available.
Flu Activity Not available.
METAR KPDC 171515Z AUTO 00000KT 10SM BKN095 14/09 A3001 RMK AO2 T01370090

More Conditions Fewer Conditions

Pressure 30.01 in
Visibility 10.0 miles
Clouds Mostly Cloudy 9500 ft
Dew Point 56 °F
Humidity 80%
Rainfall 0.00 in
Snow Depth Not available.
UV 2 out of 12
Pollen 3.80 out of 12
Air Quality Not available.
Flu Activity Not available.
METAR KPDC 171515Z AUTO 00000KT 10SM BKN095 14/09 A3001 RMK AO2 T01370090

More Conditions Fewer Conditions

10-Day Weather Forecast

Almanac

Astronomy

Sep. 17, 2014 Rise Set
Actual Time 6:47 AM CDT 7:11 PM CDT
Civil Twilight 6:19 AM CDT 7:40 PM CDT
Nautical Twilight 5:45 AM CDT 8:13 PM CDT
Astronomical Twilight 5:11 AM CDT 8:47 PM CDT
Moon 12:41 AM CDT 3:27 PM CDT
Length of Visible Light 13h 21m
Length of Day
12h 24m
Tomorrow will be 2m 52s shorter.
Waning Crescent, 35% of the Moon is Illuminated
Today
Waning Crescent
Sep 24
New
Oct 1
First Quarter
Oct 8
Full
Oct 15
Last Quarter

Today's Extremes

State Highs State Lows

Community

WunderPhotos

Upload Photos

1,754,082 photos uploaded!

WunderBlogs® & News

Nearby

Snow Depth

Station Depth Elevation
No new snow has been reported.

Earthquake Activity

City Distance Mag. Time & Date
No recent earthquake activity has been reported nearby.
Minimum magnitude displayed is 2.5.

Coastal Water Temperatures

Place Temperature
No Stations Reporting

Nearby Weather Stations